sensor_id;sensor_type;location;lat;lon;timestamp;temperature;humidity
22850;DHT22;11591;44.792;10.358;2023-06-10T04:44:12;22.30;99.90
22850;DHT22;11591;44.792;10.358;2023-06-10T04:46:38;22.30;99.90
22850;DHT22;11591;44.792;10.358;2023-06-10T04:49:03;22.30;99.90
22850;DHT22;11591;44.792;10.358;2023-06-10T04:51:30;22.40;99.90
22850;DHT22;11591;44.792;10.358;2023-06-10T04:53:58;22.30;99.90
22850;DHT22;11591;44.792;10.358;2023-06-10T04:56:24;22.20;99.90
22850;DHT22;11591;44.792;10.358;2023-06-10T04:58:50;22.20;99.90
22850;DHT22;11591;44.792;10.358;2023-06-10T05:01:16;22.30;99.90
22850;DHT22;11591;44.792;10.358;2023-06-10T05:03:42;22.30;99.90
22850;DHT22;11591;44.792;10.358;2023-06-10T05:06:07;22.30;99.90
22850;DHT22;11591;44.792;10.358;2023-06-10T05:08:33;22.30;99.90
22850;DHT22;11591;44.792;10.358;2023-06-10T05:10:59;22.30;99.90
22850;DHT22;11591;44.792;10.358;2023-06-10T05:13:25;22.20;99.90
22850;DHT22;11591;44.792;10.358;2023-06-10T05:15:51;22.10;99.90
22850;DHT22;11591;44.792;10.358;2023-06-10T05:18:16;22.00;99.90
22850;DHT22;11591;44.792;10.358;2023-06-10T05:20:42;22.00;99.90
22850;DHT22;11591;44.792;10.358;2023-06-10T05:23:08;22.10;99.90
22850;DHT22;11591;44.792;10.358;2023-06-10T05:25:34;22.10;99.90
22850;DHT22;11591;44.792;10.358;2023-06-10T05:28:00;22.10;99.90
22850;DHT22;11591;44.792;10.358;2023-06-10T05:30:26;22.10;99.90
22850;DHT22;11591;44.792;10.358;2023-06-10T05:32:52;22.20;99.90
22850;DHT22;11591;44.792;10.358;2023-06-10T05:35:18;22.20;99.90
22850;DHT22;11591;44.792;10.358;2023-06-10T05:37:44;22.30;99.90
22850;DHT22;11591;44.792;10.358;2023-06-10T05:40:11;22.30;99.90
22850;DHT22;11591;44.792;10.358;2023-06-10T05:42:36;22.40;99.90
22850;DHT22;11591;44.792;10.358;2023-06-10T05:45:03;22.20;99.90
22850;DHT22;11591;44.792;10.358;2023-06-10T05:47:29;22.20;99.90
22850;DHT22;11591;44.792;10.358;2023-06-10T05:49:55;22.20;99.90
22850;DHT22;11591;44.792;10.358;2023-06-10T05:52:20;22.20;99.90
22850;DHT22;11591;44.792;10.358;2023-06-10T05:54:46;22.20;99.90
22850;DHT22;11591;44.792;10.358;2023-06-10T05:57:12;22.10;99.90
22850;DHT22;11591;44.792;10.358;2023-06-10T05:59:38;22.10;99.90
22850;DHT22;11591;44.792;10.358;2023-06-10T06:02:04;22.10;99.90
22850;DHT22;11591;44.792;10.358;2023-06-10T06:04:30;22.00;99.90
22850;DHT22;11591;44.792;10.358;2023-06-10T06:06:57;22.00;99.90
22850;DHT22;11591;44.792;10.358;2023-06-10T06:09:23;22.10;99.90
22850;DHT22;11591;44.792;10.358;2023-06-10T06:11:49;22.10;99.90
22850;DHT22;11591;44.792;10.358;2023-06-10T06:14:15;22.10;99.90
22850;DHT22;11591;44.792;10.358;2023-06-10T06:16:40;22.20;99.90
22850;DHT22;11591;44.792;10.358;2023-06-10T06:19:06;22.20;99.90
22850;DHT22;11591;44.792;10.358;2023-06-10T06:21:32;22.20;99.90
22850;DHT22;11591;44.792;10.358;2023-06-10T06:23:59;22.30;99.90
22850;DHT22;11591;44.792;10.358;2023-06-10T06:26:24;22.20;99.90
22850;DHT22;11591;44.792;10.358;2023-06-10T06:28:51;22.10;99.90
22850;DHT22;11591;44.792;10.358;2023-06-10T06:31:17;22.00;99.90
22850;DHT22;11591;44.792;10.358;2023-06-10T06:33:43;22.00;99.90
22850;DHT22;11591;44.792;10.358;2023-06-10T06:36:09;21.90;99.90
22850;DHT22;11591;44.792;10.358;2023-06-10T06:38:35;21.80;99.90
22850;DHT22;11591;44.792;10.358;2023-06-10T06:41:00;21.60;99.90
22850;DHT22;11591;44.792;10.358;2023-06-10T06:43:32;21.40;99.90
22850;DHT22;11591;44.792;10.358;2023-06-10T06:46:18;21.30;99.90
22850;DHT22;11591;44.792;10.358;2023-06-10T06:48:44;21.20;99.90
22850;DHT22;11591;44.792;10.358;2023-06-10T06:51:10;21.10;99.90
22850;DHT22;11591;44.792;10.358;2023-06-10T06:53:35;20.80;99.90
22850;DHT22;11591;44.792;10.358;2023-06-10T06:56:02;20.90;99.90
22850;DHT22;11591;44.792;10.358;2023-06-10T06:58:28;20.90;99.90
22850;DHT22;11591;44.792;10.358;2023-06-10T07:00:54;20.90;99.90
22850;DHT22;11591;44.792;10.358;2023-06-10T07:03:21;20.90;99.90
22850;DHT22;11591;44.792;10.358;2023-06-10T07:05:47;20.80;99.90
22850;DHT22;11591;44.792;10.358;2023-06-10T07:08:12;20.70;99.90
22850;DHT22;11591;44.792;10.358;2023-06-10T07:10:38;20.70;99.90
22850;DHT22;11591;44.792;10.358;2023-06-10T07:13:04;20.70;99.90
22850;DHT22;11591;44.792;10.358;2023-06-10T07:15:30;20.50;99.90
22850;DHT22;11591;44.792;10.358;2023-06-10T07:17:56;20.40;99.90
22850;DHT22;11591;44.792;10.358;2023-06-10T07:20:22;20.20;99.90
22850;DHT22;11591;44.792;10.358;2023-06-10T07:22:47;20.10;99.90
22850;DHT22;11591;44.792;10.358;2023-06-10T07:25:13;20.10;99.90
22850;DHT22;11591;44.792;10.358;2023-06-10T07:27:39;20.10;99.90
22850;DHT22;11591;44.792;10.358;2023-06-10T07:30:06;20.10;99.90
22850;DHT22;11591;44.792;10.358;2023-06-10T07:32:34;20.20;99.90
22850;DHT22;11591;44.792;10.358;2023-06-10T07:35:00;20.20;99.90
22850;DHT22;11591;44.792;10.358;2023-06-10T07:37:26;20.10;99.90
22850;DHT22;11591;44.792;10.358;2023-06-10T07:39:52;19.90;99.90
22850;DHT22;11591;44.792;10.358;2023-06-10T07:42:18;19.60;99.90
22850;DHT22;11591;44.792;10.358;2023-06-10T07:44:44;19.50;99.90
22850;DHT22;11591;44.792;10.358;2023-06-10T07:47:09;19.50;99.90
22850;DHT22;11591;44.792;10.358;2023-06-10T07:49:35;19.60;99.90
22850;DHT22;11591;44.792;10.358;2023-06-10T07:52:01;19.80;99.90
22850;DHT22;11591;44.792;10.358;2023-06-10T07:54:27;19.90;99.90
22850;DHT22;11591;44.792;10.358;2023-06-10T07:56:53;20.00;99.90
22850;DHT22;11591;44.792;10.358;2023-06-10T07:59:19;20.20;99.90
22850;DHT22;11591;44.792;10.358;2023-06-10T08:01:44;20.30;99.90
22850;DHT22;11591;44.792;10.358;2023-06-10T08:04:11;20.20;99.90
22850;DHT22;11591;44.792;10.358;2023-06-10T08:06:37;20.10;99.90
22850;DHT22;11591;44.792;10.358;2023-06-10T08:09:03;20.00;99.90
22850;DHT22;11591;44.792;10.358;2023-06-10T08:11:29;20.00;99.90
22850;DHT22;11591;44.792;10.358;2023-06-10T08:13:55;20.10;99.90
22850;DHT22;11591;44.792;10.358;2023-06-10T08:16:21;20.30;99.90
22850;DHT22;11591;44.792;10.358;2023-06-10T08:18:47;20.40;99.90
22850;DHT22;11591;44.792;10.358;2023-06-10T08:21:13;20.50;99.90
22850;DHT22;11591;44.792;10.358;2023-06-10T08:23:38;20.60;99.90
22850;DHT22;11591;44.792;10.358;2023-06-10T08:26:04;20.50;99.90
22850;DHT22;11591;44.792;10.358;2023-06-10T08:28:30;20.40;99.90
22850;DHT22;11591;44.792;10.358;2023-06-10T08:30:56;20.30;99.90
22850;DHT22;11591;44.792;10.358;2023-06-10T08:33:21;20.20;99.90
22850;DHT22;11591;44.792;10.358;2023-06-10T08:35:47;20.10;99.90
22850;DHT22;11591;44.792;10.358;2023-06-10T08:38:13;20.00;99.90
22850;DHT22;11591;44.792;10.358;2023-06-10T08:40:39;20.00;99.90
22850;DHT22;11591;44.792;10.358;2023-06-10T08:43:15;20.00;99.90
22850;DHT22;11591;44.792;10.358;2023-06-10T08:45:43;20.00;99.90
22850;DHT22;11591;44.792;10.358;2023-06-10T08:48:13;20.00;99.90
22850;DHT22;11591;44.792;10.358;2023-06-10T08:50:40;20.10;99.90
22850;DHT22;11591;44.792;10.358;2023-06-10T08:53:07;20.20;99.90
22850;DHT22;11591;44.792;10.358;2023-06-10T08:55:37;20.20;99.90
22850;DHT22;11591;44.792;10.358;2023-06-10T08:58:03;20.20;99.90
22850;DHT22;11591;44.792;10.358;2023-06-10T09:00:31;20.30;99.90
22850;DHT22;11591;44.792;10.358;2023-06-10T09:02:58;20.40;99.90
22850;DHT22;11591;44.792;10.358;2023-06-10T09:05:24;20.30;99.90
22850;DHT22;11591;44.792;10.358;2023-06-10T09:07:52;20.10;99.90
22850;DHT22;11591;44.792;10.358;2023-06-10T09:10:18;20.10;99.90
22850;DHT22;11591;44.792;10.358;2023-06-10T09:12:44;20.20;99.90
22850;DHT22;11591;44.792;10.358;2023-06-10T09:15:10;20.10;99.90
22850;DHT22;11591;44.792;10.358;2023-06-10T09:17:38;20.10;99.90
22850;DHT22;11591;44.792;10.358;2023-06-10T09:20:07;20.10;99.90
22850;DHT22;11591;44.792;10.358;2023-06-10T09:22:33;20.20;99.90
22850;DHT22;11591;44.792;10.358;2023-06-10T09:25:35;20.30;99.90
22850;DHT22;11591;44.792;10.358;2023-06-10T09:28:02;20.30;99.90
22850;DHT22;11591;44.792;10.358;2023-06-10T09:30:34;20.60;99.90
22850;DHT22;11591;44.792;10.358;2023-06-10T09:33:02;20.80;99.90
22850;DHT22;11591;44.792;10.358;2023-06-10T09:35:34;21.00;99.90
22850;DHT22;11591;44.792;10.358;2023-06-10T09:38:00;21.20;99.90
22850;DHT22;11591;44.792;10.358;2023-06-10T09:40:27;21.40;99.90
22850;DHT22;11591;44.792;10.358;2023-06-10T09:42:59;21.60;99.90
22850;DHT22;11591;44.792;10.358;2023-06-10T09:45:32;21.80;99.90
22850;DHT22;11591;44.792;10.358;2023-06-10T09:47:58;21.80;99.90
22850;DHT22;11591;44.792;10.358;2023-06-10T09:50:24;21.80;99.90
22850;DHT22;11591;44.792;10.358;2023-06-10T09:52:50;21.50;99.90
22850;DHT22;11591;44.792;10.358;2023-06-10T09:55:17;21.50;99.90
22850;DHT22;11591;44.792;10.358;2023-06-10T09:57:43;21.50;99.90
22850;DHT22;11591;44.792;10.358;2023-06-10T10:00:13;21.40;99.90
22850;DHT22;11591;44.792;10.358;2023-06-10T10:02:50;21.50;99.90
22850;DHT22;11591;44.792;10.358;2023-06-10T10:05:17;21.60;99.90
22850;DHT22;11591;44.792;10.358;2023-06-10T10:07:44;21.50;99.90
22850;DHT22;11591;44.792;10.358;2023-06-10T10:10:11;21.70;99.90
22850;DHT22;11591;44.792;10.358;2023-06-10T10:12:39;21.90;99.90
22850;DHT22;11591;44.792;10.358;2023-06-10T10:15:09;22.10;99.90
22850;DHT22;11591;44.792;10.358;2023-06-10T10:17:44;22.20;99.90
22850;DHT22;11591;44.792;10.358;2023-06-10T10:20:13;22.30;99.90
22850;DHT22;11591;44.792;10.358;2023-06-10T10:22:41;22.40;99.90
22850;DHT22;11591;44.792;10.358;2023-06-10T10:25:11;22.50;99.90
22850;DHT22;11591;44.792;10.358;2023-06-10T10:27:55;22.60;99.90
22850;DHT22;11591;44.792;10.358;2023-06-10T10:30:23;22.70;99.90
22850;DHT22;11591;44.792;10.358;2023-06-10T10:32:58;22.80;99.90
22850;DHT22;11591;44.792;10.358;2023-06-10T10:35:27;22.80;99.90
22850;DHT22;11591;44.792;10.358;2023-06-10T10:37:54;22.90;99.90
22850;DHT22;11591;44.792;10.358;2023-06-10T10:40:24;22.90;99.90
22850;DHT22;11591;44.792;10.358;2023-06-10T10:42:51;22.90;99.90
22850;DHT22;11591;44.792;10.358;2023-06-10T10:45:17;23.00;99.90
22850;DHT22;11591;44.792;10.358;2023-06-10T10:47:45;23.10;99.90
22850;DHT22;11591;44.792;10.358;2023-06-10T10:50:16;23.20;99.90
22850;DHT22;11591;44.792;10.358;2023-06-10T10:53:00;23.20;99.90
22850;DHT22;11591;44.792;10.358;2023-06-10T10:55:26;23.30;99.90
22850;DHT22;11591;44.792;10.358;2023-06-10T10:57:56;23.40;99.90
22850;DHT22;11591;44.792;10.358;2023-06-10T11:03:08;23.40;99.90
22850;DHT22;11591;44.792;10.358;2023-06-10T11:05:41;23.50;99.90
22850;DHT22;11591;44.792;10.358;2023-06-10T11:08:10;23.50;99.90
22850;DHT22;11591;44.792;10.358;2023-06-10T11:10:38;23.60;99.90
22850;DHT22;11591;44.792;10.358;2023-06-10T11:13:13;23.70;99.90
22850;DHT22;11591;44.792;10.358;2023-06-10T11:15:49;23.70;99.90
22850;DHT22;11591;44.792;10.358;2023-06-10T11:18:38;23.80;99.90
22850;DHT22;11591;44.792;10.358;2023-06-10T11:21:05;23.90;99.90
22850;DHT22;11591;44.792;10.358;2023-06-10T11:28:36;24.20;99.90
22850;DHT22;11591;44.792;10.358;2023-06-10T11:31:02;24.30;99.90
22850;DHT22;11591;44.792;10.358;2023-06-10T11:33:33;24.40;99.90
22850;DHT22;11591;44.792;10.358;2023-06-10T11:35:59;24.30;99.90
22850;DHT22;11591;44.792;10.358;2023-06-10T11:38:25;24.40;99.90
22850;DHT22;11591;44.792;10.358;2023-06-10T11:40:51;24.30;99.90
22850;DHT22;11591;44.792;10.358;2023-06-10T11:43:18;24.30;99.90
22850;DHT22;11591;44.792;10.358;2023-06-10T11:45:44;24.30;99.90
22850;DHT22;11591;44.792;10.358;2023-06-10T11:48:10;24.30;99.90
22850;DHT22;11591;44.792;10.358;2023-06-10T11:50:38;24.40;99.90
22850;DHT22;11591;44.792;10.358;2023-06-10T11:53:03;24.50;99.90
22850;DHT22;11591;44.792;10.358;2023-06-10T11:55:45;24.50;99.90
22850;DHT22;11591;44.792;10.358;2023-06-10T11:58:21;24.50;99.90
22850;DHT22;11591;44.792;10.358;2023-06-10T12:00:51;24.60;99.90
22850;DHT22;11591;44.792;10.358;2023-06-10T12:03:24;24.60;99.90
22850;DHT22;11591;44.792;10.358;2023-06-10T12:06:04;24.70;99.90
22850;DHT22;11591;44.792;10.358;2023-06-10T12:08:30;24.70;99.90
22850;DHT22;11591;44.792;10.358;2023-06-10T12:10:57;24.70;99.90
22850;DHT22;11591;44.792;10.358;2023-06-10T12:13:25;24.70;99.90
22850;DHT22;11591;44.792;10.358;2023-06-10T12:15:51;24.70;99.90
22850;DHT22;11591;44.792;10.358;2023-06-10T12:20:43;24.60;99.90
22850;DHT22;11591;44.792;10.358;2023-06-10T12:23:10;24.70;99.90
22850;DHT22;11591;44.792;10.358;2023-06-10T12:25:36;24.70;99.90
22850;DHT22;11591;44.792;10.358;2023-06-10T12:28:05;24.80;99.90
22850;DHT22;11591;44.792;10.358;2023-06-10T12:30:32;24.80;99.90
22850;DHT22;11591;44.792;10.358;2023-06-10T12:32:58;24.80;99.90
22850;DHT22;11591;44.792;10.358;2023-06-10T12:35:26;24.90;99.90
22850;DHT22;11591;44.792;10.358;2023-06-10T12:38:03;24.90;99.90
22850;DHT22;11591;44.792;10.358;2023-06-10T12:40:32;24.90;99.90
22850;DHT22;11591;44.792;10.358;2023-06-10T12:42:59;25.00;99.90
22850;DHT22;11591;44.792;10.358;2023-06-10T12:45:32;25.00;99.90
22850;DHT22;11591;44.792;10.358;2023-06-10T12:48:08;25.10;99.90
22850;DHT22;11591;44.792;10.358;2023-06-10T12:50:39;25.20;99.90
22850;DHT22;11591;44.792;10.358;2023-06-10T12:53:06;25.30;99.90
22850;DHT22;11591;44.792;10.358;2023-06-10T12:55:33;25.30;99.90
22850;DHT22;11591;44.792;10.358;2023-06-10T12:57:59;25.40;99.90
22850;DHT22;11591;44.792;10.358;2023-06-10T13:00:26;25.40;99.90
22850;DHT22;11591;44.792;10.358;2023-06-10T13:02:53;25.40;99.90
22850;DHT22;11591;44.792;10.358;2023-06-10T13:05:19;25.40;99.90
22850;DHT22;11591;44.792;10.358;2023-06-10T13:07:46;25.40;99.90
22850;DHT22;11591;44.792;10.358;2023-06-10T13:10:13;25.40;99.90
22850;DHT22;11591;44.792;10.358;2023-06-10T13:12:39;25.50;99.90
22850;DHT22;11591;44.792;10.358;2023-06-10T13:15:05;25.40;99.90
22850;DHT22;11591;44.792;10.358;2023-06-10T13:17:31;25.40;99.90
22850;DHT22;11591;44.792;10.358;2023-06-10T13:19:59;25.30;99.90
22850;DHT22;11591;44.792;10.358;2023-06-10T13:22:26;25.30;99.90
22850;DHT22;11591;44.792;10.358;2023-06-10T13:24:54;25.30;99.90
22850;DHT22;11591;44.792;10.358;2023-06-10T13:27:19;25.30;99.90
22850;DHT22;11591;44.792;10.358;2023-06-10T13:29:45;25.40;99.90
22850;DHT22;11591;44.792;10.358;2023-06-10T13:32:11;25.50;99.90
22850;DHT22;11591;44.792;10.358;2023-06-10T13:34:36;25.60;99.90
22850;DHT22;11591;44.792;10.358;2023-06-10T13:37:02;25.60;99.90
22850;DHT22;11591;44.792;10.358;2023-06-10T13:39:30;25.60;99.90
22850;DHT22;11591;44.792;10.358;2023-06-10T13:41:56;25.60;99.90
22850;DHT22;11591;44.792;10.358;2023-06-10T13:44:21;25.60;99.90
22850;DHT22;11591;44.792;10.358;2023-06-10T13:46:47;25.70;99.90
22850;DHT22;11591;44.792;10.358;2023-06-10T13:49:13;25.80;99.90
22850;DHT22;11591;44.792;10.358;2023-06-10T13:51:39;25.90;99.90
22850;DHT22;11591;44.792;10.358;2023-06-10T13:54:04;26.00;99.90
22850;DHT22;11591;44.792;10.358;2023-06-10T13:56:30;26.10;99.90
22850;DHT22;11591;44.792;10.358;2023-06-10T13:58:56;26.20;99.90
22850;DHT22;11591;44.792;10.358;2023-06-10T14:01:22;26.20;99.90
22850;DHT22;11591;44.792;10.358;2023-06-10T14:03:48;26.30;99.90
22850;DHT22;11591;44.792;10.358;2023-06-10T14:06:14;26.30;99.90
22850;DHT22;11591;44.792;10.358;2023-06-10T14:08:44;26.40;99.90
22850;DHT22;11591;44.792;10.358;2023-06-10T14:11:10;26.40;99.90
22850;DHT22;11591;44.792;10.358;2023-06-10T14:13:36;26.30;99.90
22850;DHT22;11591;44.792;10.358;2023-06-10T14:16:04;26.20;99.90
22850;DHT22;11591;44.792;10.358;2023-06-10T14:18:30;26.10;99.90
22850;DHT22;11591;44.792;10.358;2023-06-10T14:20:56;26.10;99.90
22850;DHT22;11591;44.792;10.358;2023-06-10T14:23:22;26.10;99.90
22850;DHT22;11591;44.792;10.358;2023-06-10T14:25:49;26.10;99.90
22850;DHT22;11591;44.792;10.358;2023-06-10T14:28:15;26.20;99.90
22850;DHT22;11591;44.792;10.358;2023-06-10T14:30:40;26.30;99.90
22850;DHT22;11591;44.792;10.358;2023-06-10T14:33:06;26.60;99.90
22850;DHT22;11591;44.792;10.358;2023-06-10T14:35:32;27.00;99.90
22850;DHT22;11591;44.792;10.358;2023-06-10T14:37:58;27.30;99.90
22850;DHT22;11591;44.792;10.358;2023-06-10T14:40:23;27.90;99.90
22850;DHT22;11591;44.792;10.358;2023-06-10T14:42:51;28.40;99.90
22850;DHT22;11591;44.792;10.358;2023-06-10T14:45:17;28.80;99.90
22850;DHT22;11591;44.792;10.358;2023-06-10T14:47:43;29.20;99.90
22850;DHT22;11591;44.792;10.358;2023-06-10T14:50:09;29.60;99.90
22850;DHT22;11591;44.792;10.358;2023-06-10T14:52:34;29.90;99.90
22850;DHT22;11591;44.792;10.358;2023-06-10T14:55:00;30.10;99.90
22850;DHT22;11591;44.792;10.358;2023-06-10T14:57:26;30.10;99.90
22850;DHT22;11591;44.792;10.358;2023-06-10T14:59:52;30.20;99.90
22850;DHT22;11591;44.792;10.358;2023-06-10T15:02:17;30.40;99.90
22850;DHT22;11591;44.792;10.358;2023-06-10T15:04:43;30.70;99.90
22850;DHT22;11591;44.792;10.358;2023-06-10T15:07:09;30.80;99.90
22850;DHT22;11591;44.792;10.358;2023-06-10T15:09:35;30.80;99.90
22850;DHT22;11591;44.792;10.358;2023-06-10T15:12:00;30.90;99.90
22850;DHT22;11591;44.792;10.358;2023-06-10T15:14:26;31.00;99.90
22850;DHT22;11591;44.792;10.358;2023-06-10T15:16:52;31.20;99.90
22850;DHT22;11591;44.792;10.358;2023-06-10T15:19:18;31.40;99.90
22850;DHT22;11591;44.792;10.358;2023-06-10T15:21:43;31.60;99.90
22850;DHT22;11591;44.792;10.358;2023-06-10T15:24:09;31.60;99.90
22850;DHT22;11591;44.792;10.358;2023-06-10T15:26:36;31.70;99.90
22850;DHT22;11591;44.792;10.358;2023-06-10T15:29:01;31.80;99.90
22850;DHT22;11591;44.792;10.358;2023-06-10T15:31:31;31.80;99.90
22850;DHT22;11591;44.792;10.358;2023-06-10T15:33:58;31.70;99.90
22850;DHT22;11591;44.792;10.358;2023-06-10T15:36:25;31.70;99.90
22850;DHT22;11591;44.792;10.358;2023-06-10T15:38:51;31.20;99.90
22850;DHT22;11591;44.792;10.358;2023-06-10T15:41:17;31.20;99.90
22850;DHT22;11591;44.792;10.358;2023-06-10T15:43:42;31.10;99.90
22850;DHT22;11591;44.792;10.358;2023-06-10T15:46:08;30.90;99.90
22850;DHT22;11591;44.792;10.358;2023-06-10T15:48:34;30.90;99.90
22850;DHT22;11591;44.792;10.358;2023-06-10T15:51:00;30.80;99.90
22850;DHT22;11591;44.792;10.358;2023-06-10T15:53:26;30.90;99.90
22850;DHT22;11591;44.792;10.358;2023-06-10T15:55:51;31.00;99.90
22850;DHT22;11591;44.792;10.358;2023-06-10T15:58:17;31.20;99.90
22850;DHT22;11591;44.792;10.358;2023-06-10T16:00:43;31.40;99.90
22850;DHT22;11591;44.792;10.358;2023-06-10T16:03:09;31.40;99.90
22850;DHT22;11591;44.792;10.358;2023-06-10T16:05:35;31.20;99.90
22850;DHT22;11591;44.792;10.358;2023-06-10T16:08:00;31.20;99.90
22850;DHT22;11591;44.792;10.358;2023-06-10T16:10:26;31.10;99.90
22850;DHT22;11591;44.792;10.358;2023-06-10T16:12:52;31.10;99.90
22850;DHT22;11591;44.792;10.358;2023-06-10T16:15:18;31.20;99.90
22850;DHT22;11591;44.792;10.358;2023-06-10T16:17:43;31.10;99.90
22850;DHT22;11591;44.792;10.358;2023-06-10T16:20:10;31.20;99.90
22850;DHT22;11591;44.792;10.358;2023-06-10T16:22:35;31.20;99.90
22850;DHT22;11591;44.792;10.358;2023-06-10T16:25:02;31.30;99.90
22850;DHT22;11591;44.792;10.358;2023-06-10T16:27:27;31.30;99.90
22850;DHT22;11591;44.792;10.358;2023-06-10T16:29:53;31.30;99.90
22850;DHT22;11591;44.792;10.358;2023-06-10T16:32:19;31.30;99.90
22850;DHT22;11591;44.792;10.358;2023-06-10T16:34:45;31.40;99.90
22850;DHT22;11591;44.792;10.358;2023-06-10T16:37:10;31.50;99.90
22850;DHT22;11591;44.792;10.358;2023-06-10T16:39:36;31.50;99.90
22850;DHT22;11591;44.792;10.358;2023-06-10T16:42:02;31.50;99.90
22850;DHT22;11591;44.792;10.358;2023-06-10T16:44:28;31.40;99.90
22850;DHT22;11591;44.792;10.358;2023-06-10T16:46:54;31.20;99.90
22850;DHT22;11591;44.792;10.358;2023-06-10T16:49:20;31.00;99.90
22850;DHT22;11591;44.792;10.358;2023-06-10T16:51:45;31.00;99.90
22850;DHT22;11591;44.792;10.358;2023-06-10T16:54:11;31.10;99.90
22850;DHT22;11591;44.792;10.358;2023-06-10T16:56:37;31.00;99.90
22850;DHT22;11591;44.792;10.358;2023-06-10T16:59:03;30.90;99.90
22850;DHT22;11591;44.792;10.358;2023-06-10T17:01:28;30.90;99.90
22850;DHT22;11591;44.792;10.358;2023-06-10T17:03:54;30.90;99.90
22850;DHT22;11591;44.792;10.358;2023-06-10T17:06:20;30.90;99.90
22850;DHT22;11591;44.792;10.358;2023-06-10T17:08:46;30.90;99.90
22850;DHT22;11591;44.792;10.358;2023-06-10T17:11:11;30.80;99.90
22850;DHT22;11591;44.792;10.358;2023-06-10T17:13:37;30.80;99.90
22850;DHT22;11591;44.792;10.358;2023-06-10T17:16:03;30.70;99.90
22850;DHT22;11591;44.792;10.358;2023-06-10T17:18:29;30.70;99.90
22850;DHT22;11591;44.792;10.358;2023-06-10T17:20:55;30.80;99.90
22850;DHT22;11591;44.792;10.358;2023-06-10T17:23:21;30.70;99.90
22850;DHT22;11591;44.792;10.358;2023-06-10T17:25:47;30.70;99.90
22850;DHT22;11591;44.792;10.358;2023-06-10T17:28:13;30.70;99.90
22850;DHT22;11591;44.792;10.358;2023-06-10T17:30:38;30.70;99.90
22850;DHT22;11591;44.792;10.358;2023-06-10T17:33:04;30.50;99.90
22850;DHT22;11591;44.792;10.358;2023-06-10T17:35:30;30.50;99.90
22850;DHT22;11591;44.792;10.358;2023-06-10T17:37:55;30.40;99.90
22850;DHT22;11591;44.792;10.358;2023-06-10T17:40:21;30.30;99.90
22850;DHT22;11591;44.792;10.358;2023-06-10T17:42:47;30.30;99.90
22850;DHT22;11591;44.792;10.358;2023-06-10T17:45:13;30.30;99.90
22850;DHT22;11591;44.792;10.358;2023-06-10T17:47:38;30.30;99.90
22850;DHT22;11591;44.792;10.358;2023-06-10T17:50:04;30.20;99.90
22850;DHT22;11591;44.792;10.358;2023-06-10T17:52:30;30.00;99.90
22850;DHT22;11591;44.792;10.358;2023-06-10T17:54:56;29.90;99.90
22850;DHT22;11591;44.792;10.358;2023-06-10T17:57:22;29.80;99.90
22850;DHT22;11591;44.792;10.358;2023-06-10T17:59:48;29.60;99.90
22850;DHT22;11591;44.792;10.358;2023-06-10T18:02:13;29.60;99.90
22850;DHT22;11591;44.792;10.358;2023-06-10T18:04:39;29.50;99.90
22850;DHT22;11591;44.792;10.358;2023-06-10T18:07:05;29.50;99.90
22850;DHT22;11591;44.792;10.358;2023-06-10T18:09:31;29.40;99.90
22850;DHT22;11591;44.792;10.358;2023-06-10T18:11:57;29.30;99.90
22850;DHT22;11591;44.792;10.358;2023-06-10T18:14:22;29.20;99.90
22850;DHT22;11591;44.792;10.358;2023-06-10T18:16:48;29.10;99.90
22850;DHT22;11591;44.792;10.358;2023-06-10T18:19:14;29.10;99.90
22850;DHT22;11591;44.792;10.358;2023-06-10T18:21:41;29.00;99.90
22850;DHT22;11591;44.792;10.358;2023-06-10T18:24:07;29.00;99.90
22850;DHT22;11591;44.792;10.358;2023-06-10T18:26:33;28.90;99.90
22850;DHT22;11591;44.792;10.358;2023-06-10T18:28:59;28.80;99.90
22850;DHT22;11591;44.792;10.358;2023-06-10T18:31:25;28.80;99.90
22850;DHT22;11591;44.792;10.358;2023-06-10T18:33:51;28.70;99.90
22850;DHT22;11591;44.792;10.358;2023-06-10T18:36:17;28.60;99.90
22850;DHT22;11591;44.792;10.358;2023-06-10T18:38:43;28.40;99.90
22850;DHT22;11591;44.792;10.358;2023-06-10T18:41:11;28.30;99.90
22850;DHT22;11591;44.792;10.358;2023-06-10T18:43:36;28.20;99.90
22850;DHT22;11591;44.792;10.358;2023-06-10T18:46:02;28.00;99.90
22850;DHT22;11591;44.792;10.358;2023-06-10T18:48:28;27.90;99.90
22850;DHT22;11591;44.792;10.358;2023-06-10T18:50:54;27.70;99.90
22850;DHT22;11591;44.792;10.358;2023-06-10T18:53:20;27.50;99.90
22850;DHT22;11591;44.792;10.358;2023-06-10T18:55:46;27.30;99.90
22850;DHT22;11591;44.792;10.358;2023-06-10T18:58:12;27.20;99.90
22850;DHT22;11591;44.792;10.358;2023-06-10T19:00:38;27.00;99.90
22850;DHT22;11591;44.792;10.358;2023-06-10T19:03:04;26.80;99.90
22850;DHT22;11591;44.792;10.358;2023-06-10T19:05:29;26.60;99.90
22850;DHT22;11591;44.792;10.358;2023-06-10T19:07:55;26.50;99.90
22850;DHT22;11591;44.792;10.358;2023-06-10T19:10:21;26.30;99.90
22850;DHT22;11591;44.792;10.358;2023-06-10T19:12:47;26.20;99.90
22850;DHT22;11591;44.792;10.358;2023-06-10T19:15:14;26.10;99.90
22850;DHT22;11591;44.792;10.358;2023-06-10T19:17:39;26.00;99.90
22850;DHT22;11591;44.792;10.358;2023-06-10T19:20:07;25.90;99.90
22850;DHT22;11591;44.792;10.358;2023-06-10T19:22:33;25.90;99.90
22850;DHT22;11591;44.792;10.358;2023-06-10T19:25:03;25.80;99.90
22850;DHT22;11591;44.792;10.358;2023-06-10T19:27:29;25.80;99.90
22850;DHT22;11591;44.792;10.358;2023-06-10T19:29:56;25.70;99.90
22850;DHT22;11591;44.792;10.358;2023-06-10T19:32:23;25.60;99.90
22850;DHT22;11591;44.792;10.358;2023-06-10T19:34:49;25.50;99.90
22850;DHT22;11591;44.792;10.358;2023-06-10T19:37:15;25.50;99.90
22850;DHT22;11591;44.792;10.358;2023-06-10T19:39:41;25.40;99.90
22850;DHT22;11591;44.792;10.358;2023-06-10T19:42:07;25.30;99.90
22850;DHT22;11591;44.792;10.358;2023-06-10T19:44:33;25.30;99.90
22850;DHT22;11591;44.792;10.358;2023-06-10T19:47:00;25.20;99.90
22850;DHT22;11591;44.792;10.358;2023-06-10T19:49:26;25.10;99.90
22850;DHT22;11591;44.792;10.358;2023-06-10T19:51:51;25.20;99.90
22850;DHT22;11591;44.792;10.358;2023-06-10T19:54:17;25.10;99.90
22850;DHT22;11591;44.792;10.358;2023-06-10T19:56:43;25.10;99.90
22850;DHT22;11591;44.792;10.358;2023-06-10T19:59:09;25.00;99.90
22850;DHT22;11591;44.792;10.358;2023-06-10T20:01:35;25.00;99.90
22850;DHT22;11591;44.792;10.358;2023-06-10T20:04:00;24.90;99.90
22850;DHT22;11591;44.792;10.358;2023-06-10T20:06:26;24.90;99.90